sensor_id;sensor_type;location;lat;lon;timestamp;P1;durP1;ratioP1;P2;durP2;ratioP2
44588;SDS011;30298;52.562;13.414;2023-02-01T00:00:22;19.10;;;3.80;;
44588;SDS011;30298;52.562;13.414;2023-02-01T00:02:48;10.30;;;3.80;;
44588;SDS011;30298;52.562;13.414;2023-02-01T00:05:13;7.60;;;2.83;;
44588;SDS011;30298;52.562;13.414;2023-02-01T00:07:38;18.33;;;3.97;;
44588;SDS011;30298;52.562;13.414;2023-02-01T00:10:04;8.00;;;2.97;;
44588;SDS011;30298;52.562;13.414;2023-02-01T00:14:55;12.43;;;3.37;;
44588;SDS011;30298;52.562;13.414;2023-02-01T00:17:21;17.83;;;3.40;;
44588;SDS011;30298;52.562;13.414;2023-02-01T00:19:46;16.27;;;3.63;;
44588;SDS011;30298;52.562;13.414;2023-02-01T00:22:11;25.17;;;4.67;;
44588;SDS011;30298;52.562;13.414;2023-02-01T00:24:36;7.60;;;3.20;;
44588;SDS011;30298;52.562;13.414;2023-02-01T00:27:02;16.87;;;5.53;;
44588;SDS011;30298;52.562;13.414;2023-02-01T00:29:27;24.27;;;5.43;;
44588;SDS011;30298;52.562;13.414;2023-02-01T00:31:52;22.30;;;5.63;;
44588;SDS011;30298;52.562;13.414;2023-02-01T00:34:18;13.60;;;3.40;;
44588;SDS011;30298;52.562;13.414;2023-02-01T00:36:43;14.63;;;4.45;;
44588;SDS011;30298;52.562;13.414;2023-02-01T00:39:09;18.83;;;4.40;;
44588;SDS011;30298;52.562;13.414;2023-02-01T00:41:34;18.55;;;4.07;;
44588;SDS011;30298;52.562;13.414;2023-02-01T00:44:00;16.90;;;3.22;;
44588;SDS011;30298;52.562;13.414;2023-02-01T00:46:26;13.30;;;3.20;;
44588;SDS011;30298;52.562;13.414;2023-02-01T00:48:52;15.23;;;3.22;;
44588;SDS011;30298;52.562;13.414;2023-02-01T00:51:18;10.50;;;3.57;;
44588;SDS011;30298;52.562;13.414;2023-02-01T00:53:44;14.30;;;3.63;;
44588;SDS011;30298;52.562;13.414;2023-02-01T00:56:10;12.30;;;2.72;;
44588;SDS011;30298;52.562;13.414;2023-02-01T00:58:35;10.32;;;2.65;;
44588;SDS011;30298;52.562;13.414;2023-02-01T01:03:30;15.85;;;4.05;;
44588;SDS011;30298;52.562;13.414;2023-02-01T01:05:58;16.48;;;3.15;;
44588;SDS011;30298;52.562;13.414;2023-02-01T01:08:23;11.27;;;3.00;;
44588;SDS011;30298;52.562;13.414;2023-02-01T01:10:49;14.67;;;3.27;;
44588;SDS011;30298;52.562;13.414;2023-02-01T01:13:14;10.50;;;2.80;;
44588;SDS011;30298;52.562;13.414;2023-02-01T01:15:39;18.08;;;3.70;;
44588;SDS011;30298;52.562;13.414;2023-02-01T01:18:05;11.50;;;3.50;;
44588;SDS011;30298;52.562;13.414;2023-02-01T01:20:31;9.75;;;3.38;;
44588;SDS011;30298;52.562;13.414;2023-02-01T01:22:58;10.23;;;2.95;;
44588;SDS011;30298;52.562;13.414;2023-02-01T01:25:23;11.03;;;2.80;;
44588;SDS011;30298;52.562;13.414;2023-02-01T01:27:49;12.83;;;3.40;;
44588;SDS011;30298;52.562;13.414;2023-02-01T01:30:14;13.80;;;3.30;;
44588;SDS011;30298;52.562;13.414;2023-02-01T01:32:39;12.90;;;3.07;;
44588;SDS011;30298;52.562;13.414;2023-02-01T01:35:05;9.63;;;4.53;;
44588;SDS011;30298;52.562;13.414;2023-02-01T01:37:31;7.28;;;2.25;;
44588;SDS011;30298;52.562;13.414;2023-02-01T01:39:56;10.68;;;3.30;;
44588;SDS011;30298;52.562;13.414;2023-02-01T01:42:22;16.40;;;2.55;;
44588;SDS011;30298;52.562;13.414;2023-02-01T01:47:35;14.65;;;3.65;;
44588;SDS011;30298;52.562;13.414;2023-02-01T01:50:02;11.88;;;2.95;;
44588;SDS011;30298;52.562;13.414;2023-02-01T01:52:28;17.83;;;4.88;;
44588;SDS011;30298;52.562;13.414;2023-02-01T01:54:53;14.60;;;3.40;;
44588;SDS011;30298;52.562;13.414;2023-02-01T01:57:38;15.70;;;2.63;;
44588;SDS011;30298;52.562;13.414;2023-02-01T02:00:09;21.35;;;3.97;;
44588;SDS011;30298;52.562;13.414;2023-02-01T02:02:35;16.65;;;4.80;;
44588;SDS011;30298;52.562;13.414;2023-02-01T02:05:02;12.57;;;3.28;;
44588;SDS011;30298;52.562;13.414;2023-02-01T02:07:28;14.48;;;3.85;;
44588;SDS011;30298;52.562;13.414;2023-02-01T02:09:55;10.90;;;3.20;;
44588;SDS011;30298;52.562;13.414;2023-02-01T02:12:20;16.58;;;3.55;;
44588;SDS011;30298;52.562;13.414;2023-02-01T02:14:45;8.10;;;2.67;;
44588;SDS011;30298;52.562;13.414;2023-02-01T02:24:58;11.65;;;3.05;;
44588;SDS011;30298;52.562;13.414;2023-02-01T02:30:19;16.50;;;4.18;;
44588;SDS011;30298;52.562;13.414;2023-02-01T02:40:37;13.05;;;3.22;;
44588;SDS011;30298;52.562;13.414;2023-02-01T02:48:59;18.90;;;3.58;;
44588;SDS011;30298;52.562;13.414;2023-02-01T02:51:28;17.80;;;4.13;;
44588;SDS011;30298;52.562;13.414;2023-02-01T02:54:18;16.23;;;2.47;;
44588;SDS011;30298;52.562;13.414;2023-02-01T02:57:04;9.88;;;2.30;;
44588;SDS011;30298;52.562;13.414;2023-02-01T02:59:50;9.65;;;3.38;;
44588;SDS011;30298;52.562;13.414;2023-02-01T03:02:34;8.88;;;2.58;;
44588;SDS011;30298;52.562;13.414;2023-02-01T03:05:18;14.18;;;3.13;;
44588;SDS011;30298;52.562;13.414;2023-02-01T03:12:40;13.93;;;3.25;;
44588;SDS011;30298;52.562;13.414;2023-02-01T03:17:56;10.00;;;3.20;;
44588;SDS011;30298;52.562;13.414;2023-02-01T03:20:23;16.63;;;3.58;;
44588;SDS011;30298;52.562;13.414;2023-02-01T03:22:49;18.42;;;4.10;;
44588;SDS011;30298;52.562;13.414;2023-02-01T03:25:18;14.63;;;3.25;;
44588;SDS011;30298;52.562;13.414;2023-02-01T03:30:25;17.63;;;3.73;;
44588;SDS011;30298;52.562;13.414;2023-02-01T03:32:52;10.02;;;4.28;;
44588;SDS011;30298;52.562;13.414;2023-02-01T03:35:31;13.50;;;3.65;;
44588;SDS011;30298;52.562;13.414;2023-02-01T03:38:32;16.13;;;3.72;;
44588;SDS011;30298;52.562;13.414;2023-02-01T03:41:02;13.60;;;4.18;;
44588;SDS011;30298;52.562;13.414;2023-02-01T03:43:29;19.25;;;4.30;;
44588;SDS011;30298;52.562;13.414;2023-02-01T03:46:09;17.95;;;3.35;;
44588;SDS011;30298;52.562;13.414;2023-02-01T03:48:36;10.48;;;3.25;;
44588;SDS011;30298;52.562;13.414;2023-02-01T03:51:03;8.23;;;3.20;;
44588;SDS011;30298;52.562;13.414;2023-02-01T03:53:29;22.55;;;2.88;;
44588;SDS011;30298;52.562;13.414;2023-02-01T03:55:55;12.80;;;3.53;;
44588;SDS011;30298;52.562;13.414;2023-02-01T03:58:21;13.82;;;3.38;;
44588;SDS011;30298;52.562;13.414;2023-02-01T04:00:51;15.13;;;3.17;;
44588;SDS011;30298;52.562;13.414;2023-02-01T04:03:17;23.65;;;3.47;;
44588;SDS011;30298;52.562;13.414;2023-02-01T04:05:42;10.77;;;2.73;;
44588;SDS011;30298;52.562;13.414;2023-02-01T04:08:07;11.13;;;3.23;;
44588;SDS011;30298;52.562;13.414;2023-02-01T04:10:32;18.13;;;4.07;;
44588;SDS011;30298;52.562;13.414;2023-02-01T04:12:58;20.43;;;3.10;;
44588;SDS011;30298;52.562;13.414;2023-02-01T04:15:23;13.47;;;4.03;;
44588;SDS011;30298;52.562;13.414;2023-02-01T04:17:48;16.60;;;3.40;;
44588;SDS011;30298;52.562;13.414;2023-02-01T04:20:14;11.17;;;4.53;;
44588;SDS011;30298;52.562;13.414;2023-02-01T04:22:39;17.03;;;4.83;;
44588;SDS011;30298;52.562;13.414;2023-02-01T04:25:04;10.97;;;3.23;;
44588;SDS011;30298;52.562;13.414;2023-02-01T04:27:33;22.45;;;4.28;;
44588;SDS011;30298;52.562;13.414;2023-02-01T04:29:58;25.48;;;4.28;;
44588;SDS011;30298;52.562;13.414;2023-02-01T04:32:24;20.43;;;5.33;;
44588;SDS011;30298;52.562;13.414;2023-02-01T04:34:49;13.93;;;4.30;;
44588;SDS011;30298;52.562;13.414;2023-02-01T04:37:14;18.43;;;3.90;;
44588;SDS011;30298;52.562;13.414;2023-02-01T04:39:40;18.77;;;3.37;;
44588;SDS011;30298;52.562;13.414;2023-02-01T04:42:05;14.33;;;3.53;;
44588;SDS011;30298;52.562;13.414;2023-02-01T04:44:30;13.57;;;4.10;;
44588;SDS011;30298;52.562;13.414;2023-02-01T04:46:55;26.00;;;4.60;;
44588;SDS011;30298;52.562;13.414;2023-02-01T04:49:21;10.47;;;2.87;;
44588;SDS011;30298;52.562;13.414;2023-02-01T04:51:46;9.33;;;2.83;;
44588;SDS011;30298;52.562;13.414;2023-02-01T04:54:11;15.53;;;3.00;;
44588;SDS011;30298;52.562;13.414;2023-02-01T04:56:37;21.30;;;3.30;;
44588;SDS011;30298;52.562;13.414;2023-02-01T04:59:02;11.25;;;2.33;;
44588;SDS011;30298;52.562;13.414;2023-02-01T05:01:28;13.95;;;4.13;;
44588;SDS011;30298;52.562;13.414;2023-02-01T05:03:53;19.90;;;5.00;;
44588;SDS011;30298;52.562;13.414;2023-02-01T05:06:18;17.47;;;3.70;;
44588;SDS011;30298;52.562;13.414;2023-02-01T05:08:44;17.70;;;4.17;;
44588;SDS011;30298;52.562;13.414;2023-02-01T05:11:09;18.47;;;3.57;;
44588;SDS011;30298;52.562;13.414;2023-02-01T05:13:57;12.48;;;3.45;;
44588;SDS011;30298;52.562;13.414;2023-02-01T05:16:23;14.02;;;3.17;;
44588;SDS011;30298;52.562;13.414;2023-02-01T05:18:48;22.33;;;4.60;;
44588;SDS011;30298;52.562;13.414;2023-02-01T05:21:14;17.70;;;4.37;;
44588;SDS011;30298;52.562;13.414;2023-02-01T05:23:39;11.40;;;2.67;;
44588;SDS011;30298;52.562;13.414;2023-02-01T05:26:23;18.25;;;3.42;;
44588;SDS011;30298;52.562;13.414;2023-02-01T05:28:48;18.30;;;4.33;;
44588;SDS011;30298;52.562;13.414;2023-02-01T05:31:13;14.07;;;5.40;;
44588;SDS011;30298;52.562;13.414;2023-02-01T05:33:39;13.03;;;4.13;;
44588;SDS011;30298;52.562;13.414;2023-02-01T05:36:04;16.73;;;3.70;;
44588;SDS011;30298;52.562;13.414;2023-02-01T05:38:29;13.27;;;2.93;;
44588;SDS011;30298;52.562;13.414;2023-02-01T05:40:55;11.77;;;3.20;;
44588;SDS011;30298;52.562;13.414;2023-02-01T05:43:20;13.35;;;3.42;;
44588;SDS011;30298;52.562;13.414;2023-02-01T05:45:46;15.40;;;4.37;;
44588;SDS011;30298;52.562;13.414;2023-02-01T05:48:11;18.10;;;4.37;;
44588;SDS011;30298;52.562;13.414;2023-02-01T05:50:36;19.87;;;4.63;;
44588;SDS011;30298;52.562;13.414;2023-02-01T05:53:01;17.93;;;4.17;;
44588;SDS011;30298;52.562;13.414;2023-02-01T05:55:27;15.97;;;3.27;;
44588;SDS011;30298;52.562;13.414;2023-02-01T05:57:52;14.17;;;2.77;;
44588;SDS011;30298;52.562;13.414;2023-02-01T06:00:17;20.30;;;5.17;;
44588;SDS011;30298;52.562;13.414;2023-02-01T06:02:43;16.13;;;4.22;;
44588;SDS011;30298;52.562;13.414;2023-02-01T06:05:08;19.20;;;4.28;;
44588;SDS011;30298;52.562;13.414;2023-02-01T06:07:34;17.23;;;3.60;;
44588;SDS011;30298;52.562;13.414;2023-02-01T06:09:59;11.77;;;3.63;;
44588;SDS011;30298;52.562;13.414;2023-02-01T06:12:24;10.70;;;2.80;;
44588;SDS011;30298;52.562;13.414;2023-02-01T06:14:51;18.10;;;4.45;;
44588;SDS011;30298;52.562;13.414;2023-02-01T06:17:16;15.98;;;4.10;;
44588;SDS011;30298;52.562;13.414;2023-02-01T06:19:42;17.17;;;3.73;;
44588;SDS011;30298;52.562;13.414;2023-02-01T06:22:08;13.40;;;3.55;;
44588;SDS011;30298;52.562;13.414;2023-02-01T06:24:34;18.37;;;3.47;;
44588;SDS011;30298;52.562;13.414;2023-02-01T06:26:59;21.00;;;3.63;;
44588;SDS011;30298;52.562;13.414;2023-02-01T06:29:24;11.43;;;4.17;;
44588;SDS011;30298;52.562;13.414;2023-02-01T06:31:51;10.98;;;3.10;;
44588;SDS011;30298;52.562;13.414;2023-02-01T06:34:16;12.43;;;3.40;;
44588;SDS011;30298;52.562;13.414;2023-02-01T06:36:42;12.83;;;3.43;;
44588;SDS011;30298;52.562;13.414;2023-02-01T06:39:07;21.20;;;4.47;;
44588;SDS011;30298;52.562;13.414;2023-02-01T06:41:32;16.13;;;4.30;;
44588;SDS011;30298;52.562;13.414;2023-02-01T06:43:59;20.08;;;4.60;;
44588;SDS011;30298;52.562;13.414;2023-02-01T06:46:25;12.38;;;3.67;;
44588;SDS011;30298;52.562;13.414;2023-02-01T06:48:50;7.93;;;3.73;;
44588;SDS011;30298;52.562;13.414;2023-02-01T06:51:18;7.78;;;3.33;;
44588;SDS011;30298;52.562;13.414;2023-02-01T06:53:44;21.83;;;4.47;;
44588;SDS011;30298;52.562;13.414;2023-02-01T06:56:09;18.77;;;4.53;;
44588;SDS011;30298;52.562;13.414;2023-02-01T06:58:34;16.73;;;3.47;;
44588;SDS011;30298;52.562;13.414;2023-02-01T07:01:06;23.43;;;5.13;;
44588;SDS011;30298;52.562;13.414;2023-02-01T07:03:32;15.43;;;4.82;;
44588;SDS011;30298;52.562;13.414;2023-02-01T07:05:57;21.73;;;4.93;;
44588;SDS011;30298;52.562;13.414;2023-02-01T07:08:28;14.38;;;3.65;;
44588;SDS011;30298;52.562;13.414;2023-02-01T07:10:53;11.07;;;3.63;;
44588;SDS011;30298;52.562;13.414;2023-02-01T07:13:19;16.37;;;4.07;;
44588;SDS011;30298;52.562;13.414;2023-02-01T07:15:44;21.50;;;4.23;;
44588;SDS011;30298;52.562;13.414;2023-02-01T07:18:11;12.38;;;4.05;;
44588;SDS011;30298;52.562;13.414;2023-02-01T07:20:39;14.95;;;4.85;;
44588;SDS011;30298;52.562;13.414;2023-02-01T07:23:04;11.87;;;3.23;;
44588;SDS011;30298;52.562;13.414;2023-02-01T07:25:29;21.27;;;5.23;;
44588;SDS011;30298;52.562;13.414;2023-02-01T07:27:54;10.90;;;4.27;;
44588;SDS011;30298;52.562;13.414;2023-02-01T07:30:20;11.97;;;3.87;;
44588;SDS011;30298;52.562;13.414;2023-02-01T07:32:45;20.73;;;4.57;;
44588;SDS011;30298;52.562;13.414;2023-02-01T07:35:10;15.43;;;4.67;;
44588;SDS011;30298;52.562;13.414;2023-02-01T07:37:36;11.98;;;4.13;;
44588;SDS011;30298;52.562;13.414;2023-02-01T07:40:01;12.43;;;4.27;;
44588;SDS011;30298;52.562;13.414;2023-02-01T07:42:27;16.37;;;5.93;;
44588;SDS011;30298;52.562;13.414;2023-02-01T07:44:52;16.63;;;3.90;;
44588;SDS011;30298;52.562;13.414;2023-02-01T07:47:17;22.80;;;4.63;;
44588;SDS011;30298;52.562;13.414;2023-02-01T07:49:42;17.60;;;3.53;;
44588;SDS011;30298;52.562;13.414;2023-02-01T07:52:08;22.07;;;3.93;;
44588;SDS011;30298;52.562;13.414;2023-02-01T07:54:33;9.30;;;3.90;;
44588;SDS011;30298;52.562;13.414;2023-02-01T07:56:58;19.80;;;4.63;;
44588;SDS011;30298;52.562;13.414;2023-02-01T07:59:23;14.57;;;4.50;;
44588;SDS011;30298;52.562;13.414;2023-02-01T08:01:49;12.70;;;3.03;;
44588;SDS011;30298;52.562;13.414;2023-02-01T08:04:14;15.93;;;4.27;;
44588;SDS011;30298;52.562;13.414;2023-02-01T08:06:39;15.63;;;4.67;;
44588;SDS011;30298;52.562;13.414;2023-02-01T08:09:05;9.90;;;4.75;;
44588;SDS011;30298;52.562;13.414;2023-02-01T08:11:31;14.27;;;4.25;;
44588;SDS011;30298;52.562;13.414;2023-02-01T08:13:58;11.10;;;3.47;;
44588;SDS011;30298;52.562;13.414;2023-02-01T08:16:23;18.70;;;4.07;;
44588;SDS011;30298;52.562;13.414;2023-02-01T08:18:48;9.07;;;3.70;;
44588;SDS011;30298;52.562;13.414;2023-02-01T08:21:15;10.57;;;5.90;;
44588;SDS011;30298;52.562;13.414;2023-02-01T08:23:41;16.23;;;4.57;;
44588;SDS011;30298;52.562;13.414;2023-02-01T08:26:10;13.95;;;4.60;;
44588;SDS011;30298;52.562;13.414;2023-02-01T08:28:36;12.43;;;4.30;;
44588;SDS011;30298;52.562;13.414;2023-02-01T08:31:07;9.15;;;3.47;;
44588;SDS011;30298;52.562;13.414;2023-02-01T08:33:33;17.33;;;6.15;;
44588;SDS011;30298;52.562;13.414;2023-02-01T08:36:00;10.70;;;4.80;;
44588;SDS011;30298;52.562;13.414;2023-02-01T08:38:25;12.07;;;4.05;;
44588;SDS011;30298;52.562;13.414;2023-02-01T08:40:50;10.13;;;4.30;;
44588;SDS011;30298;52.562;13.414;2023-02-01T08:43:16;8.03;;;4.67;;
44588;SDS011;30298;52.562;13.414;2023-02-01T08:45:41;8.17;;;4.37;;
44588;SDS011;30298;52.562;13.414;2023-02-01T08:48:06;15.83;;;4.63;;
44588;SDS011;30298;52.562;13.414;2023-02-01T08:50:32;17.07;;;6.17;;
44588;SDS011;30298;52.562;13.414;2023-02-01T08:52:57;12.53;;;5.27;;
44588;SDS011;30298;52.562;13.414;2023-02-01T08:55:22;10.03;;;4.60;;
44588;SDS011;30298;52.562;13.414;2023-02-01T08:57:47;9.50;;;4.03;;
44588;SDS011;30298;52.562;13.414;2023-02-01T09:00:13;9.43;;;4.90;;
44588;SDS011;30298;52.562;13.414;2023-02-01T09:02:40;7.63;;;4.38;;
44588;SDS011;30298;52.562;13.414;2023-02-01T09:05:05;12.27;;;4.77;;
44588;SDS011;30298;52.562;13.414;2023-02-01T09:07:31;4.72;;;3.38;;
44588;SDS011;30298;52.562;13.414;2023-02-01T09:09:57;8.93;;;3.53;;
44588;SDS011;30298;52.562;13.414;2023-02-01T09:12:25;6.32;;;3.75;;
44588;SDS011;30298;52.562;13.414;2023-02-01T09:14:51;7.60;;;3.92;;
44588;SDS011;30298;52.562;13.414;2023-02-01T09:17:16;6.37;;;3.90;;
44588;SDS011;30298;52.562;13.414;2023-02-01T09:19:42;11.03;;;3.97;;
44588;SDS011;30298;52.562;13.414;2023-02-01T09:22:07;11.53;;;4.67;;
44588;SDS011;30298;52.562;13.414;2023-02-01T09:24:32;7.77;;;3.80;;
44588;SDS011;30298;52.562;13.414;2023-02-01T09:26:57;13.13;;;4.60;;
44588;SDS011;30298;52.562;13.414;2023-02-01T09:29:23;11.47;;;4.30;;
44588;SDS011;30298;52.562;13.414;2023-02-01T09:31:48;7.37;;;3.83;;
44588;SDS011;30298;52.562;13.414;2023-02-01T09:34:13;8.03;;;3.47;;
44588;SDS011;30298;52.562;13.414;2023-02-01T09:36:39;5.78;;;3.47;;
44588;SDS011;30298;52.562;13.414;2023-02-01T09:39:04;6.70;;;3.10;;
44588;SDS011;30298;52.562;13.414;2023-02-01T09:44:15;11.70;;;4.07;;
44588;SDS011;30298;52.562;13.414;2023-02-01T09:46:43;6.47;;;2.65;;
44588;SDS011;30298;52.562;13.414;2023-02-01T09:49:22;5.90;;;3.03;;
44588;SDS011;30298;52.562;13.414;2023-02-01T09:51:49;6.68;;;2.65;;
44588;SDS011;30298;52.562;13.414;2023-02-01T09:54:19;5.45;;;2.10;;
44588;SDS011;30298;52.562;13.414;2023-02-01T09:57:06;5.93;;;2.60;;
44588;SDS011;30298;52.562;13.414;2023-02-01T09:59:39;5.05;;;2.55;;
44588;SDS011;30298;52.562;13.414;2023-02-01T10:02:10;4.90;;;2.60;;
44588;SDS011;30298;52.562;13.414;2023-02-01T10:04:36;5.80;;;2.92;;
44588;SDS011;30298;52.562;13.414;2023-02-01T10:14:35;2.95;;;2.13;;
44588;SDS011;30298;52.562;13.414;2023-02-01T10:22:16;2.78;;;2.40;;
44588;SDS011;30298;52.562;13.414;2023-02-01T10:24:53;6.97;;;3.33;;
44588;SDS011;30298;52.562;13.414;2023-02-01T10:27:29;8.27;;;2.70;;
44588;SDS011;30298;52.562;13.414;2023-02-01T10:29:59;9.23;;;3.67;;
44588;SDS011;30298;52.562;13.414;2023-02-01T10:32:32;3.90;;;2.15;;
44588;SDS011;30298;52.562;13.414;2023-02-01T10:35:00;6.43;;;2.90;;
44588;SDS011;30298;52.562;13.414;2023-02-01T10:37:32;4.13;;;2.60;;
44588;SDS011;30298;52.562;13.414;2023-02-01T10:39:59;7.32;;;4.25;;
44588;SDS011;30298;52.562;13.414;2023-02-01T10:42:26;7.57;;;3.97;;
44588;SDS011;30298;52.562;13.414;2023-02-01T10:44:52;5.28;;;2.88;;
44588;SDS011;30298;52.562;13.414;2023-02-01T10:47:19;11.63;;;3.47;;
44588;SDS011;30298;52.562;13.414;2023-02-01T10:54:56;6.38;;;2.67;;
44588;SDS011;30298;52.562;13.414;2023-02-01T10:57:23;9.35;;;3.10;;
44588;SDS011;30298;52.562;13.414;2023-02-01T10:59:50;5.80;;;2.42;;
44588;SDS011;30298;52.562;13.414;2023-02-01T11:02:26;3.38;;;1.98;;
44588;SDS011;30298;52.562;13.414;2023-02-01T11:05:08;9.65;;;3.25;;
44588;SDS011;30298;52.562;13.414;2023-02-01T11:07:37;8.80;;;3.03;;
44588;SDS011;30298;52.562;13.414;2023-02-01T11:10:03;9.65;;;3.00;;
44588;SDS011;30298;52.562;13.414;2023-02-01T11:12:38;4.43;;;2.85;;
44588;SDS011;30298;52.562;13.414;2023-02-01T11:15:14;12.48;;;4.13;;
44588;SDS011;30298;52.562;13.414;2023-02-01T11:17:41;15.20;;;3.95;;
44588;SDS011;30298;52.562;13.414;2023-02-01T11:20:17;10.75;;;2.67;;
44588;SDS011;30298;52.562;13.414;2023-02-01T11:23:01;9.95;;;3.60;;
44588;SDS011;30298;52.562;13.414;2023-02-01T11:25:26;6.80;;;2.90;;
44588;SDS011;30298;52.562;13.414;2023-02-01T11:27:53;8.07;;;4.75;;
44588;SDS011;30298;52.562;13.414;2023-02-01T11:30:22;12.13;;;3.40;;
44588;SDS011;30298;52.562;13.414;2023-02-01T11:32:50;11.95;;;2.90;;
44588;SDS011;30298;52.562;13.414;2023-02-01T11:35:17;10.48;;;3.53;;
44588;SDS011;30298;52.562;13.414;2023-02-01T11:37:44;14.45;;;3.15;;
44588;SDS011;30298;52.562;13.414;2023-02-01T11:42:52;11.27;;;3.00;;
44588;SDS011;30298;52.562;13.414;2023-02-01T11:45:20;10.20;;;3.03;;
44588;SDS011;30298;52.562;13.414;2023-02-01T11:47:46;5.78;;;3.33;;
44588;SDS011;30298;52.562;13.414;2023-02-01T11:50:16;15.80;;;4.50;;
44588;SDS011;30298;52.562;13.414;2023-02-01T11:57:51;8.10;;;3.10;;
44588;SDS011;30298;52.562;13.414;2023-02-01T12:00:28;14.52;;;4.43;;
44588;SDS011;30298;52.562;13.414;2023-02-01T12:05:37;10.48;;;3.42;;
44588;SDS011;30298;52.562;13.414;2023-02-01T12:08:21;8.48;;;3.33;;
44588;SDS011;30298;52.562;13.414;2023-02-01T12:39:44;6.45;;;2.30;;
44588;SDS011;30298;52.562;13.414;2023-02-01T12:42:14;7.38;;;2.95;;
44588;SDS011;30298;52.562;13.414;2023-02-01T12:44:52;8.55;;;3.83;;
44588;SDS011;30298;52.562;13.414;2023-02-01T12:47:26;6.20;;;2.85;;
44588;SDS011;30298;52.562;13.414;2023-02-01T12:50:37;6.07;;;2.50;;
44588;SDS011;30298;52.562;13.414;2023-02-01T12:52:48;10.82;;;3.08;;
44588;SDS011;30298;52.562;13.414;2023-02-01T12:55:25;8.80;;;2.75;;
44588;SDS011;30298;52.562;13.414;2023-02-01T12:57:58;10.88;;;2.63;;
44588;SDS011;30298;52.562;13.414;2023-02-01T13:00:35;7.57;;;2.88;;
44588;SDS011;30298;52.562;13.414;2023-02-01T13:08:12;6.63;;;2.85;;
44588;SDS011;30298;52.562;13.414;2023-02-01T13:13:10;4.17;;;2.10;;
44588;SDS011;30298;52.562;13.414;2023-02-01T13:15:37;2.40;;;1.90;;
44588;SDS011;30298;52.562;13.414;2023-02-01T13:18:04;3.33;;;1.98;;
44588;SDS011;30298;52.562;13.414;2023-02-01T13:20:45;1.95;;;1.75;;
44588;SDS011;30298;52.562;13.414;2023-02-01T13:23:17;5.35;;;2.05;;
44588;SDS011;30298;52.562;13.414;2023-02-01T13:25:48;5.82;;;2.67;;
44588;SDS011;30298;52.562;13.414;2023-02-01T13:28:20;5.45;;;2.30;;
44588;SDS011;30298;52.562;13.414;2023-02-01T13:33:36;6.10;;;2.97;;
44588;SDS011;30298;52.562;13.414;2023-02-01T13:36:19;6.70;;;2.60;;
44588;SDS011;30298;52.562;13.414;2023-02-01T13:43:53;8.75;;;3.33;;
44588;SDS011;30298;52.562;13.414;2023-02-01T13:46:19;7.75;;;2.17;;
44588;SDS011;30298;52.562;13.414;2023-02-01T13:48:49;8.00;;;2.80;;
44588;SDS011;30298;52.562;13.414;2023-02-01T13:51:15;6.93;;;2.17;;
44588;SDS011;30298;52.562;13.414;2023-02-01T13:53:46;12.07;;;2.72;;
44588;SDS011;30298;52.562;13.414;2023-02-01T13:56:13;10.55;;;2.75;;
44588;SDS011;30298;52.562;13.414;2023-02-01T13:58:40;5.38;;;2.47;;
44588;SDS011;30298;52.562;13.414;2023-02-01T14:03:44;9.27;;;3.38;;
44588;SDS011;30298;52.562;13.414;2023-02-01T14:06:43;8.10;;;2.83;;
44588;SDS011;30298;52.562;13.414;2023-02-01T14:11:37;7.45;;;2.50;;
44588;SDS011;30298;52.562;13.414;2023-02-01T14:16:40;4.40;;;2.05;;
44588;SDS011;30298;52.562;13.414;2023-02-01T14:19:19;6.53;;;2.60;;
44588;SDS011;30298;52.562;13.414;2023-02-01T14:21:49;5.75;;;2.72;;
44588;SDS011;30298;52.562;13.414;2023-02-01T14:24:20;9.45;;;3.42;;
44588;SDS011;30298;52.562;13.414;2023-02-01T14:26:47;5.43;;;2.75;;
44588;SDS011;30298;52.562;13.414;2023-02-01T14:36:43;11.90;;;3.20;;
44588;SDS011;30298;52.562;13.414;2023-02-01T14:39:18;11.38;;;3.95;;
44588;SDS011;30298;52.562;13.414;2023-02-01T14:41:44;15.30;;;3.88;;
44588;SDS011;30298;52.562;13.414;2023-02-01T14:49:20;10.57;;;3.72;;
44588;SDS011;30298;52.562;13.414;2023-02-01T14:51:45;13.83;;;5.17;;
44588;SDS011;30298;52.562;13.414;2023-02-01T14:54:11;10.50;;;3.67;;
44588;SDS011;30298;52.562;13.414;2023-02-01T14:56:38;12.13;;;3.88;;
44588;SDS011;30298;52.562;13.414;2023-02-01T14:59:07;10.77;;;3.65;;
44588;SDS011;30298;52.562;13.414;2023-02-01T15:01:35;13.05;;;4.03;;
44588;SDS011;30298;52.562;13.414;2023-02-01T15:04:12;9.45;;;3.38;;
44588;SDS011;30298;52.562;13.414;2023-02-01T15:06:44;12.35;;;3.33;;
44588;SDS011;30298;52.562;13.414;2023-02-01T15:09:44;11.80;;;3.60;;
44588;SDS011;30298;52.562;13.414;2023-02-01T15:12:03;9.57;;;3.13;;
44588;SDS011;30298;52.562;13.414;2023-02-01T15:14:33;15.75;;;3.63;;
44588;SDS011;30298;52.562;13.414;2023-02-01T15:16:59;8.70;;;2.97;;
44588;SDS011;30298;52.562;13.414;2023-02-01T15:19:25;8.68;;;3.60;;
44588;SDS011;30298;52.562;13.414;2023-02-01T15:21:52;5.88;;;2.58;;
44588;SDS011;30298;52.562;13.414;2023-02-01T15:26:46;7.82;;;2.53;;
44588;SDS011;30298;52.562;13.414;2023-02-01T15:29:12;2.50;;;2.27;;
44588;SDS011;30298;52.562;13.414;2023-02-01T15:31:39;3.97;;;2.30;;
44588;SDS011;30298;52.562;13.414;2023-02-01T15:34:09;7.85;;;2.50;;
44588;SDS011;30298;52.562;13.414;2023-02-01T15:36:34;10.83;;;2.90;;
44588;SDS011;30298;52.562;13.414;2023-02-01T15:39:11;3.85;;;2.72;;
44588;SDS011;30298;52.562;13.414;2023-02-01T15:41:37;2.45;;;1.90;;
44588;SDS011;30298;52.562;13.414;2023-02-01T15:44:04;5.23;;;2.40;;
44588;SDS011;30298;52.562;13.414;2023-02-01T15:48:55;5.63;;;2.50;;
44588;SDS011;30298;52.562;13.414;2023-02-01T15:51:23;5.40;;;2.57;;
44588;SDS011;30298;52.562;13.414;2023-02-01T15:53:53;3.67;;;2.22;;
44588;SDS011;30298;52.562;13.414;2023-02-01T15:56:23;5.43;;;2.03;;
44588;SDS011;30298;52.562;13.414;2023-02-01T15:58:50;4.00;;;2.30;;
44588;SDS011;30298;52.562;13.414;2023-02-01T16:01:16;2.85;;;1.73;;
44588;SDS011;30298;52.562;13.414;2023-02-01T16:03:43;3.47;;;1.63;;
44588;SDS011;30298;52.562;13.414;2023-02-01T16:06:26;2.58;;;2.20;;
44588;SDS011;30298;52.562;13.414;2023-02-01T16:08:55;1.95;;;1.45;;
44588;SDS011;30298;52.562;13.414;2023-02-01T16:11:32;1.70;;;1.50;;
44588;SDS011;30298;52.562;13.414;2023-02-01T16:13:58;3.22;;;2.10;;
44588;SDS011;30298;52.562;13.414;2023-02-01T16:16:24;1.73;;;1.40;;
44588;SDS011;30298;52.562;13.414;2023-02-01T16:18:49;6.07;;;2.75;;
44588;SDS011;30298;52.562;13.414;2023-02-01T16:21:14;3.83;;;1.80;;
44588;SDS011;30298;52.562;13.414;2023-02-01T16:23:40;2.20;;;1.60;;
44588;SDS011;30298;52.562;13.414;2023-02-01T16:26:05;2.50;;;1.80;;
44588;SDS011;30298;52.562;13.414;2023-02-01T16:28:31;2.17;;;1.98;;
44588;SDS011;30298;52.562;13.414;2023-02-01T16:30:56;2.80;;;2.27;;
44588;SDS011;30298;52.562;13.414;2023-02-01T16:33:22;2.25;;;1.85;;
44588;SDS011;30298;52.562;13.414;2023-02-01T16:35:48;2.03;;;1.60;;
44588;SDS011;30298;52.562;13.414;2023-02-01T16:38:14;3.63;;;1.60;;
44588;SDS011;30298;52.562;13.414;2023-02-01T16:40:40;3.55;;;1.63;;
44588;SDS011;30298;52.562;13.414;2023-02-01T16:45:38;1.92;;;1.67;;
44588;SDS011;30298;52.562;13.414;2023-02-01T16:48:05;5.70;;;2.17;;
44588;SDS011;30298;52.562;13.414;2023-02-01T16:50:30;2.70;;;1.73;;
44588;SDS011;30298;52.562;13.414;2023-02-01T16:52:57;2.03;;;1.83;;
44588;SDS011;30298;52.562;13.414;2023-02-01T16:55:22;2.47;;;2.27;;